sensor_id;sensor_type;location;lat;lon;timestamp;pressure;altitude;pressure_sealevel;temperature;humidity
21203;BME280;10759;51.982;9.232;2024-02-15T00:00:21;100491.41;;;11.02;100.00
21203;BME280;10759;51.982;9.232;2024-02-15T00:02:53;100498.28;;;11.09;100.00
21203;BME280;10759;51.982;9.232;2024-02-15T00:05:21;100494.25;;;10.97;100.00
21203;BME280;10759;51.982;9.232;2024-02-15T00:07:50;100502.41;;;10.94;100.00
21203;BME280;10759;51.982;9.232;2024-02-15T00:10:18;100502.00;;;11.05;100.00
21203;BME280;10759;51.982;9.232;2024-02-15T00:12:47;100484.31;;;11.01;100.00
21203;BME280;10759;51.982;9.232;2024-02-15T00:15:17;100484.34;;;10.99;100.00
21203;BME280;10759;51.982;9.232;2024-02-15T00:17:46;100489.53;;;11.04;100.00
21203;BME280;10759;51.982;9.232;2024-02-15T00:20:16;100492.97;;;11.07;100.00
21203;BME280;10759;51.982;9.232;2024-02-15T00:22:44;100491.28;;;11.05;100.00
21203;BME280;10759;51.982;9.232;2024-02-15T00:25:15;100493.03;;;11.06;100.00
21203;BME280;10759;51.982;9.232;2024-02-15T00:27:44;100498.22;;;11.10;100.00
21203;BME280;10759;51.982;9.232;2024-02-15T00:30:12;100499.56;;;10.99;100.00
21203;BME280;10759;51.982;9.232;2024-02-15T00:32:41;100494.22;;;10.99;100.00
21203;BME280;10759;51.982;9.232;2024-02-15T00:35:09;100503.38;;;10.93;100.00
21203;BME280;10759;51.982;9.232;2024-02-15T00:37:40;100501.56;;;10.93;100.00
21203;BME280;10759;51.982;9.232;2024-02-15T00:40:09;100455.03;;;10.71;100.00
21203;BME280;10759;51.982;9.232;2024-02-15T00:42:37;100488.16;;;10.93;100.00
21203;BME280;10759;51.982;9.232;2024-02-15T00:45:06;100495.66;;;11.07;100.00
21203;BME280;10759;51.982;9.232;2024-02-15T00:47:36;100485.13;;;11.03;100.00
21203;BME280;10759;51.982;9.232;2024-02-15T00:50:05;100498.75;;;10.96;100.00
21203;BME280;10759;51.982;9.232;2024-02-15T00:52:34;100473.19;;;10.88;100.00
21203;BME280;10759;51.982;9.232;2024-02-15T00:55:04;100493.09;;;11.04;100.00
21203;BME280;10759;51.982;9.232;2024-02-15T00:57:32;100496.06;;;10.96;100.00
21203;BME280;10759;51.982;9.232;2024-02-15T01:00:00;100497.94;;;10.94;100.00
21203;BME280;10759;51.982;9.232;2024-02-15T01:02:30;100494.03;;;11.03;100.00
21203;BME280;10759;51.982;9.232;2024-02-15T01:04:58;100471.28;;;10.90;100.00
21203;BME280;10759;51.982;9.232;2024-02-15T01:07:26;100498.63;;;11.00;100.00
21203;BME280;10759;51.982;9.232;2024-02-15T01:09:54;100508.47;;;10.99;100.00
21203;BME280;10759;51.982;9.232;2024-02-15T01:12:24;100503.00;;;11.02;100.00
21203;BME280;10759;51.982;9.232;2024-02-15T01:14:52;100503.16;;;10.98;100.00
21203;BME280;10759;51.982;9.232;2024-02-15T01:17:20;100494.78;;;11.07;100.00
21203;BME280;10759;51.982;9.232;2024-02-15T01:19:48;100498.63;;;11.00;100.00
21203;BME280;10759;51.982;9.232;2024-02-15T01:22:16;100493.16;;;11.03;100.00
21203;BME280;10759;51.982;9.232;2024-02-15T01:24:47;100495.47;;;11.12;100.00
21203;BME280;10759;51.982;9.232;2024-02-15T01:27:15;100499.97;;;11.11;100.00
21203;BME280;10759;51.982;9.232;2024-02-15T01:29:45;100502.91;;;11.05;100.00
21203;BME280;10759;51.982;9.232;2024-02-15T01:32:13;100491.53;;;10.99;100.00
21203;BME280;10759;51.982;9.232;2024-02-15T01:34:41;100500.38;;;11.01;100.00
21203;BME280;10759;51.982;9.232;2024-02-15T01:37:09;100491.66;;;10.95;100.00
21203;BME280;10759;51.982;9.232;2024-02-15T01:39:37;100451.91;;;10.83;100.00
21203;BME280;10759;51.982;9.232;2024-02-15T01:42:05;100494.03;;;11.03;100.00
21203;BME280;10759;51.982;9.232;2024-02-15T01:44:34;100489.28;;;11.10;100.00
21203;BME280;10759;51.982;9.232;2024-02-15T01:47:05;100479.16;;;10.94;100.00
21203;BME280;10759;51.982;9.232;2024-02-15T01:49:38;100488.59;;;11.05;100.00
21203;BME280;10759;51.982;9.232;2024-02-15T01:52:10;100493.16;;;11.03;100.00
21203;BME280;10759;51.982;9.232;2024-02-15T01:54:41;100505.63;;;11.04;100.00
21203;BME280;10759;51.982;9.232;2024-02-15T01:57:09;100498.63;;;11.00;100.00
21203;BME280;10759;51.982;9.232;2024-02-15T01:59:37;100481.97;;;10.91;100.00
21203;BME280;10759;51.982;9.232;2024-02-15T02:02:10;100484.81;;;11.10;100.00
21203;BME280;10759;51.982;9.232;2024-02-15T02:04:40;100454.03;;;10.97;100.00
21203;BME280;10759;51.982;9.232;2024-02-15T02:07:09;100484.88;;;11.09;100.00
21203;BME280;10759;51.982;9.232;2024-02-15T02:09:38;100470.81;;;11.02;100.00
21203;BME280;10759;51.982;9.232;2024-02-15T02:12:06;100460.03;;;10.80;100.00
21203;BME280;10759;51.982;9.232;2024-02-15T02:14:35;100488.03;;;10.96;100.00
21203;BME280;10759;51.982;9.232;2024-02-15T02:17:14;100481.00;;;10.92;100.00
21203;BME280;10759;51.982;9.232;2024-02-15T02:19:42;100494.03;;;11.03;100.00
21203;BME280;10759;51.982;9.232;2024-02-15T02:22:11;100457.09;;;10.88;100.00
21203;BME280;10759;51.982;9.232;2024-02-15T02:24:57;100489.41;;;11.07;100.00
21203;BME280;10759;51.982;9.232;2024-02-15T02:27:26;100478.69;;;11.07;100.00
21203;BME280;10759;51.982;9.232;2024-02-15T02:29:55;100483.94;;;11.10;100.00
21203;BME280;10759;51.982;9.232;2024-02-15T02:32:23;100473.03;;;11.14;100.00
21203;BME280;10759;51.982;9.232;2024-02-15T02:34:52;100475.97;;;11.08;100.00
21203;BME280;10759;51.982;9.232;2024-02-15T02:37:24;100482.72;;;11.18;100.00
21203;BME280;10759;51.982;9.232;2024-02-15T02:39:52;100481.72;;;11.21;100.00
21203;BME280;10759;51.982;9.232;2024-02-15T02:42:22;100475.31;;;11.02;100.00
21203;BME280;10759;51.982;9.232;2024-02-15T02:44:50;100476.09;;;11.05;100.00
21203;BME280;10759;51.982;9.232;2024-02-15T02:47:18;100467.53;;;10.95;100.00
21203;BME280;10759;51.982;9.232;2024-02-15T02:49:46;100480.03;;;11.18;100.00
21203;BME280;10759;51.982;9.232;2024-02-15T02:52:14;100465.16;;;11.10;100.00
21203;BME280;10759;51.982;9.232;2024-02-15T02:54:42;100483.88;;;11.11;100.00
21203;BME280;10759;51.982;9.232;2024-02-15T02:57:10;100473.94;;;11.15;100.00
21203;BME280;10759;51.982;9.232;2024-02-15T02:59:39;100479.97;;;11.20;100.00
21203;BME280;10759;51.982;9.232;2024-02-15T03:02:07;100483.72;;;11.16;100.00
21203;BME280;10759;51.982;9.232;2024-02-15T03:04:35;100471.81;;;11.23;100.00
21203;BME280;10759;51.982;9.232;2024-02-15T03:07:05;100484.09;;;11.29;100.00
21203;BME280;10759;51.982;9.232;2024-02-15T03:09:33;100488.03;;;11.20;100.00
21203;BME280;10759;51.982;9.232;2024-02-15T03:12:04;100489.41;;;11.30;100.00
21203;BME280;10759;51.982;9.232;2024-02-15T03:14:32;100481.78;;;11.42;100.00
21203;BME280;10759;51.982;9.232;2024-02-15T03:17:03;100477.88;;;11.28;100.00
21203;BME280;10759;51.982;9.232;2024-02-15T03:19:32;100490.09;;;11.35;100.00
21203;BME280;10759;51.982;9.232;2024-02-15T03:22:00;100489.75;;;11.45;100.00
21203;BME280;10759;51.982;9.232;2024-02-15T03:24:28;100483.19;;;11.30;100.00
21203;BME280;10759;51.982;9.232;2024-02-15T03:26:56;100490.31;;;11.29;100.00
21203;BME280;10759;51.982;9.232;2024-02-15T03:29:24;100487.94;;;11.22;100.00
21203;BME280;10759;51.982;9.232;2024-02-15T03:31:52;100491.28;;;11.28;100.00
21203;BME280;10759;51.982;9.232;2024-02-15T03:34:23;100492.16;;;11.29;100.00
21203;BME280;10759;51.982;9.232;2024-02-15T03:36:52;100486.97;;;11.24;100.00
21203;BME280;10759;51.982;9.232;2024-02-15T03:39:21;100411.91;;;10.77;100.00
21203;BME280;10759;51.982;9.232;2024-02-15T03:41:50;100453.50;;;11.11;100.00
21203;BME280;10759;51.982;9.232;2024-02-15T03:44:20;100487.78;;;11.26;100.00
21203;BME280;10759;51.982;9.232;2024-02-15T03:46:48;100493.31;;;11.22;100.00
21203;BME280;10759;51.982;9.232;2024-02-15T03:49:18;100494.56;;;11.13;100.00
21203;BME280;10759;51.982;9.232;2024-02-15T03:51:47;100490.13;;;11.12;100.00
21203;BME280;10759;51.982;9.232;2024-02-15T03:54:16;100491.00;;;11.12;100.00
21203;BME280;10759;51.982;9.232;2024-02-15T03:56:48;100449.63;;;10.96;100.00
21203;BME280;10759;51.982;9.232;2024-02-15T03:59:18;100499.97;;;11.11;100.00
21203;BME280;10759;51.982;9.232;2024-02-15T04:01:53;100465.63;;;10.98;100.00
21203;BME280;10759;51.982;9.232;2024-02-15T04:04:21;100489.28;;;11.10;100.00
21203;BME280;10759;51.982;9.232;2024-02-15T04:06:51;100490.28;;;11.07;100.00
21203;BME280;10759;51.982;9.232;2024-02-15T04:09:20;100481.50;;;11.04;100.00
21203;BME280;10759;51.982;9.232;2024-02-15T04:11:48;100473.50;;;11.02;100.00
21203;BME280;10759;51.982;9.232;2024-02-15T04:14:20;100486.00;;;11.03;100.00
21203;BME280;10759;51.982;9.232;2024-02-15T04:16:48;100483.94;;;11.10;100.00
21203;BME280;10759;51.982;9.232;2024-02-15T04:19:16;100474.56;;;10.98;100.00
21203;BME280;10759;51.982;9.232;2024-02-15T04:21:46;100483.06;;;11.09;100.00
21203;BME280;10759;51.982;9.232;2024-02-15T04:24:16;100492.63;;;11.16;100.00
21203;BME280;10759;51.982;9.232;2024-02-15T04:26:44;100491.31;;;11.27;100.00
21203;BME280;10759;51.982;9.232;2024-02-15T04:29:15;100496.81;;;11.24;100.00
21203;BME280;10759;51.982;9.232;2024-02-15T04:31:43;100503.53;;;11.12;100.00
21203;BME280;10759;51.982;9.232;2024-02-15T04:34:11;100499.28;;;11.06;100.00
21203;BME280;10759;51.982;9.232;2024-02-15T04:36:39;100502.25;;;10.99;100.00
21203;BME280;10759;51.982;9.232;2024-02-15T04:39:09;100486.69;;;11.08;100.00
21203;BME280;10759;51.982;9.232;2024-02-15T04:41:42;100493.09;;;11.04;100.00
21203;BME280;10759;51.982;9.232;2024-02-15T04:44:10;100488.78;;;11.00;100.00
21203;BME280;10759;51.982;9.232;2024-02-15T04:46:38;100493.69;;;11.12;100.00
21203;BME280;10759;51.982;9.232;2024-02-15T04:49:07;100482.16;;;11.10;100.00
21203;BME280;10759;51.982;9.232;2024-02-15T04:51:36;100498.09;;;11.13;100.00
21203;BME280;10759;51.982;9.232;2024-02-15T04:54:05;100485.22;;;11.23;100.00
21203;BME280;10759;51.982;9.232;2024-02-15T04:56:34;100487.34;;;11.15;100.00
21203;BME280;10759;51.982;9.232;2024-02-15T04:59:04;100424.72;;;10.69;100.00
21203;BME280;10759;51.982;9.232;2024-02-15T05:01:35;100495.44;;;11.13;100.00
21203;BME280;10759;51.982;9.232;2024-02-15T05:04:03;100492.19;;;11.05;100.00
21203;BME280;10759;51.982;9.232;2024-02-15T05:06:33;100467.72;;;10.89;100.00
21203;BME280;10759;51.982;9.232;2024-02-15T05:09:03;100440.31;;;11.05;100.00
21203;BME280;10759;51.982;9.232;2024-02-15T05:11:34;100481.84;;;11.18;100.00
21203;BME280;10759;51.982;9.232;2024-02-15T05:14:04;100483.19;;;11.06;100.00
21203;BME280;10759;51.982;9.232;2024-02-15T05:16:33;100487.03;;;10.99;100.00
21203;BME280;10759;51.982;9.232;2024-02-15T05:19:01;100485.50;;;10.92;100.00
21203;BME280;10759;51.982;9.232;2024-02-15T05:21:31;100486.38;;;10.92;100.00
21203;BME280;10759;51.982;9.232;2024-02-15T05:24:00;100480.56;;;11.05;100.00
21203;BME280;10759;51.982;9.232;2024-02-15T05:26:29;100481.53;;;11.02;100.00
21203;BME280;10759;51.982;9.232;2024-02-15T05:28:57;100485.28;;;10.98;100.00
21203;BME280;10759;51.982;9.232;2024-02-15T05:31:27;100418.06;;;10.56;100.00
21203;BME280;10759;51.982;9.232;2024-02-15T05:33:54;100487.28;;;10.93;100.00
21203;BME280;10759;51.982;9.232;2024-02-15T05:36:24;100497.09;;;10.92;100.00
21203;BME280;10759;51.982;9.232;2024-02-15T05:38:53;100453.06;;;10.76;100.00
21203;BME280;10759;51.982;9.232;2024-02-15T05:41:21;100485.69;;;10.87;100.00
21203;BME280;10759;51.982;9.232;2024-02-15T05:43:49;100495.50;;;10.88;100.00
21203;BME280;10759;51.982;9.232;2024-02-15T05:46:19;100487.38;;;10.90;100.00
21203;BME280;10759;51.982;9.232;2024-02-15T05:48:51;100475.31;;;10.78;100.00
21203;BME280;10759;51.982;9.232;2024-02-15T05:51:19;100483.25;;;10.81;100.00
21203;BME280;10759;51.982;9.232;2024-02-15T05:53:47;100480.69;;;10.78;100.00
21203;BME280;10759;51.982;9.232;2024-02-15T05:56:16;100450.66;;;10.68;100.00
21203;BME280;10759;51.982;9.232;2024-02-15T05:58:44;100484.53;;;10.94;100.00
21203;BME280;10759;51.982;9.232;2024-02-15T06:01:12;100479.03;;;10.98;100.00
21203;BME280;10759;51.982;9.232;2024-02-15T06:03:40;100493.16;;;11.03;100.00
21203;BME280;10759;51.982;9.232;2024-02-15T06:06:12;100490.28;;;11.07;100.00
21203;BME280;10759;51.982;9.232;2024-02-15T06:08:40;100495.03;;;11.01;100.00
21203;BME280;10759;51.982;9.232;2024-02-15T06:11:08;100493.75;;;11.11;100.00
21203;BME280;10759;51.982;9.232;2024-02-15T06:13:37;100464.59;;;11.02;100.00
21203;BME280;10759;51.982;9.232;2024-02-15T06:16:05;100502.00;;;11.05;100.00
21203;BME280;10759;51.982;9.232;2024-02-15T06:18:36;100500.25;;;11.04;100.00
21203;BME280;10759;51.982;9.232;2024-02-15T06:21:05;100495.66;;;11.07;100.00
21203;BME280;10759;51.982;9.232;2024-02-15T06:23:34;100498.75;;;10.96;100.00
21203;BME280;10759;51.982;9.232;2024-02-15T06:26:04;100490.53;;;11.01;100.00
21203;BME280;10759;51.982;9.232;2024-02-15T06:28:33;100493.16;;;11.03;100.00
21203;BME280;10759;51.982;9.232;2024-02-15T06:31:18;100490.66;;;10.98;100.00
21203;BME280;10759;51.982;9.232;2024-02-15T06:34:04;100484.06;;;10.83;100.00
21203;BME280;10759;51.982;9.232;2024-02-15T06:36:52;100490.94;;;10.90;100.00
21203;BME280;10759;51.982;9.232;2024-02-15T06:39:39;100491.03;;;10.87;100.00
21203;BME280;10759;51.982;9.232;2024-02-15T06:42:10;100498.00;;;10.93;100.00
21203;BME280;10759;51.982;9.232;2024-02-15T06:44:42;100486.66;;;10.85;100.00
21203;BME280;10759;51.982;9.232;2024-02-15T06:47:10;100479.94;;;10.73;100.00
21203;BME280;10759;51.982;9.232;2024-02-15T06:49:39;100486.50;;;10.89;100.00
21203;BME280;10759;51.982;9.232;2024-02-15T06:52:08;100484.53;;;10.94;100.00
21203;BME280;10759;51.982;9.232;2024-02-15T06:54:40;100491.03;;;10.87;100.00
21203;BME280;10759;51.982;9.232;2024-02-15T06:57:09;100471.88;;;10.74;100.00
21203;BME280;10759;51.982;9.232;2024-02-15T06:59:37;100478.94;;;11.01;100.00
21203;BME280;10759;51.982;9.232;2024-02-15T07:02:06;100488.19;;;10.92;100.00
21203;BME280;10759;51.982;9.232;2024-02-15T07:04:35;100488.44;;;10.86;100.00
21203;BME280;10759;51.982;9.232;2024-02-15T07:07:04;100491.03;;;10.87;100.00
21203;BME280;10759;51.982;9.232;2024-02-15T07:09:32;100490.88;;;10.92;100.00
21203;BME280;10759;51.982;9.232;2024-02-15T07:12:01;100495.56;;;10.85;100.00
21203;BME280;10759;51.982;9.232;2024-02-15T07:14:30;100492.31;;;10.77;100.00
21203;BME280;10759;51.982;9.232;2024-02-15T07:16:58;100488.59;;;10.81;100.00
21203;BME280;10759;51.982;9.232;2024-02-15T07:19:26;100483.47;;;10.75;100.00
21203;BME280;10759;51.982;9.232;2024-02-15T07:21:55;100498.56;;;10.78;100.00
21203;BME280;10759;51.982;9.232;2024-02-15T07:24:24;100493.16;;;10.79;100.00
21203;BME280;10759;51.982;9.232;2024-02-15T07:26:54;100472.53;;;10.81;100.00
21203;BME280;10759;51.982;9.232;2024-02-15T07:29:23;100484.75;;;10.88;100.00
21203;BME280;10759;51.982;9.232;2024-02-15T07:31:52;100481.00;;;10.92;100.00
21203;BME280;10759;51.982;9.232;2024-02-15T07:34:21;100467.69;;;10.91;100.00
21203;BME280;10759;51.982;9.232;2024-02-15T07:36:50;100469.72;;;10.84;100.00
21203;BME280;10759;51.982;9.232;2024-02-15T07:39:18;100475.19;;;10.81;100.00
21203;BME280;10759;51.982;9.232;2024-02-15T07:41:51;100482.00;;;10.90;100.00
21203;BME280;10759;51.982;9.232;2024-02-15T07:44:19;100478.63;;;10.85;100.00
21203;BME280;10759;51.982;9.232;2024-02-15T07:46:48;100496.22;;;10.92;100.00
21203;BME280;10759;51.982;9.232;2024-02-15T07:49:17;100494.66;;;10.86;100.00
21203;BME280;10759;51.982;9.232;2024-02-15T07:51:45;100493.72;;;10.87;100.00
21203;BME280;10759;51.982;9.232;2024-02-15T07:54:19;100492.72;;;10.90;100.00
21203;BME280;10759;51.982;9.232;2024-02-15T07:56:47;100489.97;;;10.93;100.00
21203;BME280;10759;51.982;9.232;2024-02-15T07:59:16;100472.28;;;10.87;100.00
21203;BME280;10759;51.982;9.232;2024-02-15T08:01:44;100493.69;;;11.12;100.00
21203;BME280;10759;51.982;9.232;2024-02-15T08:04:15;100494.16;;;11.00;100.00
21203;BME280;10759;51.982;9.232;2024-02-15T08:06:44;100489.19;;;11.13;100.00
21203;BME280;10759;51.982;9.232;2024-02-15T08:09:12;100492.69;;;11.15;100.00
21203;BME280;10759;51.982;9.232;2024-02-15T08:11:41;100490.94;;;11.14;100.00
21203;BME280;10759;51.982;9.232;2024-02-15T08:14:09;100490.06;;;11.13;100.00
21203;BME280;10759;51.982;9.232;2024-02-15T08:16:40;100496.06;;;11.20;100.00
21203;BME280;10759;51.982;9.232;2024-02-15T08:19:08;100475.09;;;11.08;100.00
21203;BME280;10759;51.982;9.232;2024-02-15T08:21:39;100488.22;;;11.15;100.00
21203;BME280;10759;51.982;9.232;2024-02-15T08:24:13;100482.72;;;11.18;100.00
21203;BME280;10759;51.982;9.232;2024-02-15T08:26:41;100484.06;;;11.30;100.00
21203;BME280;10759;51.982;9.232;2024-02-15T08:29:09;100478.59;;;11.32;100.00
21203;BME280;10759;51.982;9.232;2024-02-15T08:31:38;100474.91;;;11.34;100.00
21203;BME280;10759;51.982;9.232;2024-02-15T08:34:08;100472.16;;;11.37;100.00
21203;BME280;10759;51.982;9.232;2024-02-15T08:36:42;100480.00;;;11.42;100.00
21203;BME280;10759;51.982;9.232;2024-02-15T08:39:10;100484.25;;;11.48;100.00
21203;BME280;10759;51.982;9.232;2024-02-15T08:41:39;100417.59;;;11.15;100.00
21203;BME280;10759;51.982;9.232;2024-02-15T08:44:07;100473.56;;;11.46;100.00
21203;BME280;10759;51.982;9.232;2024-02-15T08:46:38;100471.25;;;11.59;100.00
21203;BME280;10759;51.982;9.232;2024-02-15T08:49:06;100464.84;;;11.63;100.00
21203;BME280;10759;51.982;9.232;2024-02-15T08:51:35;100471.56;;;11.73;100.00
21203;BME280;10759;51.982;9.232;2024-02-15T08:54:05;100466.63;;;11.85;100.00
21203;BME280;10759;51.982;9.232;2024-02-15T08:56:35;100472.72;;;11.90;100.00
21203;BME280;10759;51.982;9.232;2024-02-15T08:59:03;100463.19;;;12.03;100.00
21203;BME280;10759;51.982;9.232;2024-02-15T09:01:31;100450.44;;;11.88;100.00
21203;BME280;10759;51.982;9.232;2024-02-15T09:04:00;100465.00;;;12.02;100.00
21203;BME280;10759;51.982;9.232;2024-02-15T09:06:29;100459.69;;;12.01;100.00
21203;BME280;10759;51.982;9.232;2024-02-15T09:08:57;100449.47;;;11.89;100.00
21203;BME280;10759;51.982;9.232;2024-02-15T09:11:29;100461.72;;;11.96;100.00
21203;BME280;10759;51.982;9.232;2024-02-15T09:13:57;100462.38;;;12.01;100.00
21203;BME280;10759;51.982;9.232;2024-02-15T09:16:25;100444.81;;;11.94;100.00
21203;BME280;10759;51.982;9.232;2024-02-15T09:18:56;100390.22;;;11.71;100.00
21203;BME280;10759;51.982;9.232;2024-02-15T09:21:27;100449.44;;;12.11;100.00
21203;BME280;10759;51.982;9.232;2024-02-15T09:23:56;100453.81;;;12.13;100.00
21203;BME280;10759;51.982;9.232;2024-02-15T09:26:24;100444.41;;;12.03;100.00
21203;BME280;10759;51.982;9.232;2024-02-15T09:28:53;100453.94;;;12.10;100.00
21203;BME280;10759;51.982;9.232;2024-02-15T09:31:21;100467.31;;;12.12;100.00
21203;BME280;10759;51.982;9.232;2024-02-15T09:33:51;100453.94;;;12.10;100.00
21203;BME280;10759;51.982;9.232;2024-02-15T09:36:19;100451.28;;;11.88;100.00
21203;BME280;10759;51.982;9.232;2024-02-15T09:38:47;100385.50;;;11.56;100.00
21203;BME280;10759;51.982;9.232;2024-02-15T09:41:16;100465.88;;;12.03;100.00
21203;BME280;10759;51.982;9.232;2024-02-15T09:43:44;100465.06;;;12.01;100.00
21203;BME280;10759;51.982;9.232;2024-02-15T09:46:14;100471.16;;;12.06;100.00
21203;BME280;10759;51.982;9.232;2024-02-15T09:48:47;100479.13;;;12.08;100.00
21203;BME280;10759;51.982;9.232;2024-02-15T09:51:18;100477.06;;;12.14;100.00
21203;BME280;10759;51.982;9.232;2024-02-15T09:53:48;100466.84;;;12.02;100.00
21203;BME280;10759;51.982;9.232;2024-02-15T09:56:16;100461.47;;;12.02;100.00
21203;BME280;10759;51.982;9.232;2024-02-15T09:58:45;100482.00;;;12.03;100.00
21203;BME280;10759;51.982;9.232;2024-02-15T10:01:15;100490.88;;;12.05;100.00
21203;BME280;10759;51.982;9.232;2024-02-15T10:03:43;100487.78;;;11.94;100.00
21203;BME280;10759;51.982;9.232;2024-02-15T10:06:11;100483.88;;;12.01;100.00
21203;BME280;10759;51.982;9.232;2024-02-15T10:08:40;100466.34;;;11.92;100.00
21203;BME280;10759;51.982;9.232;2024-02-15T10:11:08;100483.13;;;11.97;100.00
21203;BME280;10759;51.982;9.232;2024-02-15T10:13:37;100482.94;;;12.02;100.00
21203;BME280;10759;51.982;9.232;2024-02-15T10:16:16;100489.38;;;11.98;100.00
21203;BME280;10759;51.982;9.232;2024-02-15T10:18:45;100454.13;;;11.83;100.00
21203;BME280;10759;51.982;9.232;2024-02-15T10:21:26;100464.97;;;12.04;100.00
21203;BME280;10759;51.982;9.232;2024-02-15T10:24:04;100473.16;;;12.21;100.00
21203;BME280;10759;51.982;9.232;2024-02-15T10:26:33;100476.72;;;12.22;100.00
21203;BME280;10759;51.982;9.232;2024-02-15T10:29:07;100479.59;;;12.17;100.00
21203;BME280;10759;51.982;9.232;2024-02-15T10:31:39;100480.94;;;12.28;100.00
21203;BME280;10759;51.982;9.232;2024-02-15T10:34:08;100473.31;;;12.18;100.00
21203;BME280;10759;51.982;9.232;2024-02-15T10:36:38;100465.31;;;12.17;100.00
21203;BME280;10759;51.982;9.232;2024-02-15T10:39:13;100478.34;;;12.26;100.00
21203;BME280;10759;51.982;9.232;2024-02-15T10:41:49;100471.50;;;12.19;100.00
21203;BME280;10759;51.982;9.232;2024-02-15T10:44:18;100467.13;;;12.16;100.00
21203;BME280;10759;51.982;9.232;2024-02-15T10:46:49;100468.72;;;12.20;100.00
21203;BME280;10759;51.982;9.232;2024-02-15T10:49:19;100459.72;;;12.21;100.00
21203;BME280;10759;51.982;9.232;2024-02-15T10:51:54;100443.63;;;12.21;100.00
21203;BME280;10759;51.982;9.232;2024-02-15T10:54:40;100462.13;;;12.28;100.00
21203;BME280;10759;51.982;9.232;2024-02-15T10:57:10;100472.44;;;12.38;100.00
21203;BME280;10759;51.982;9.232;2024-02-15T10:59:53;100473.16;;;12.42;100.00
21203;BME280;10759;51.982;9.232;2024-02-15T11:02:30;100472.25;;;12.43;100.00
21203;BME280;10759;51.982;9.232;2024-02-15T11:05:02;100476.53;;;12.47;100.00
21203;BME280;10759;51.982;9.232;2024-02-15T11:07:32;100408.00;;;11.96;100.00
21203;BME280;10759;51.982;9.232;2024-02-15T11:10:00;100473.91;;;12.45;100.00
21203;BME280;10759;51.982;9.232;2024-02-15T11:12:31;100473.16;;;12.42;100.00
21203;BME280;10759;51.982;9.232;2024-02-15T11:14:59;100472.44;;;12.38;100.00
21203;BME280;10759;51.982;9.232;2024-02-15T11:17:48;100478.94;;;12.33;100.00
21203;BME280;10759;51.982;9.232;2024-02-15T11:20:45;100468.84;;;12.38;100.00
21203;BME280;10759;51.982;9.232;2024-02-15T11:23:27;100463.28;;;12.22;100.00
21203;BME280;10759;51.982;9.232;2024-02-15T11:26:04;100460.06;;;12.14;100.00
21203;BME280;10759;51.982;9.232;2024-02-15T11:28:40;100416.97;;;11.74;100.00
21203;BME280;10759;51.982;9.232;2024-02-15T11:31:54;100456.28;;;11.97;100.00
21203;BME280;10759;51.982;9.232;2024-02-15T11:34:43;100458.25;;;11.94;100.00
21203;BME280;10759;51.982;9.232;2024-02-15T11:40:15;100442.53;;;11.83;100.00
21203;BME280;10759;51.982;9.232;2024-02-15T11:42:44;100440.84;;;11.80;100.00
21203;BME280;10759;51.982;9.232;2024-02-15T11:45:12;100400.47;;;11.61;100.00
21203;BME280;10759;51.982;9.232;2024-02-15T11:47:40;100412.41;;;11.76;100.00
21203;BME280;10759;51.982;9.232;2024-02-15T11:50:11;100409.97;;;11.70;100.00
21203;BME280;10759;51.982;9.232;2024-02-15T11:52:41;100391.81;;;11.55;100.00
21203;BME280;10759;51.982;9.232;2024-02-15T11:55:10;100408.09;;;11.72;100.00
21203;BME280;10759;51.982;9.232;2024-02-15T11:57:40;100404.47;;;11.73;100.00
21203;BME280;10759;51.982;9.232;2024-02-15T12:00:22;100404.25;;;11.57;100.00
21203;BME280;10759;51.982;9.232;2024-02-15T12:03:08;100397.72;;;11.63;100.00
21203;BME280;10759;51.982;9.232;2024-02-15T12:05:55;100406.06;;;11.57;100.00
21203;BME280;10759;51.982;9.232;2024-02-15T12:08:51;100380.72;;;11.42;100.00
21203;BME280;10759;51.982;9.232;2024-02-15T12:11:37;100390.38;;;11.46;100.00
21203;BME280;10759;51.982;9.232;2024-02-15T12:14:23;100390.81;;;11.57;100.00
21203;BME280;10759;51.982;9.232;2024-02-15T12:17:10;100385.38;;;11.59;100.00
21203;BME280;10759;51.982;9.232;2024-02-15T12:20:05;100385.38;;;11.59;100.00
21203;BME280;10759;51.982;9.232;2024-02-15T12:22:44;100365.81;;;11.57;100.00
21203;BME280;10759;51.982;9.232;2024-02-15T12:25:14;100357.41;;;11.65;100.00
21203;BME280;10759;51.982;9.232;2024-02-15T12:27:44;100358.44;;;11.62;100.00
21203;BME280;10759;51.982;9.232;2024-02-15T12:30:14;100343.38;;;11.58;100.00
21203;BME280;10759;51.982;9.232;2024-02-15T12:32:44;100352.38;;;11.57;100.00
21203;BME280;10759;51.982;9.232;2024-02-15T12:35:15;100348.81;;;11.56;100.00
21203;BME280;10759;51.982;9.232;2024-02-15T12:37:46;100334.81;;;11.70;100.00
21203;BME280;10759;51.982;9.232;2024-02-15T12:40:17;100320.75;;;11.64;100.00
21203;BME280;10759;51.982;9.232;2024-02-15T12:42:46;100322.19;;;11.72;100.00
21203;BME280;10759;51.982;9.232;2024-02-15T12:45:15;100318.69;;;11.70;100.00
21203;BME280;10759;51.982;9.232;2024-02-15T12:47:48;100337.97;;;11.80;100.00
21203;BME280;10759;51.982;9.232;2024-02-15T12:50:18;100331.41;;;11.87;100.00
21203;BME280;10759;51.982;9.232;2024-02-15T12:52:50;100256.69;;;11.56;100.00
21203;BME280;10759;51.982;9.232;2024-02-15T12:55:21;100331.53;;;12.05;100.00
21203;BME280;10759;51.982;9.232;2024-02-15T12:57:52;100338.03;;;12.19;100.00
21203;BME280;10759;51.982;9.232;2024-02-15T13:00:23;100338.03;;;12.19;100.00